createdAt,value
2019-02-02T00:00:25.849Z,17.50
2019-02-02T00:01:25.841Z,21.10
2019-02-02T00:02:25.831Z,14.80
2019-02-02T00:03:25.823Z,14.00
2019-02-02T00:04:25.815Z,12.10
2019-02-02T00:05:25.809Z,14.90
2019-02-02T00:06:25.797Z,11.80
2019-02-02T00:07:25.789Z,8.80
2019-02-02T00:08:25.783Z,15.90
2019-02-02T00:09:25.772Z,13.60
2019-02-02T00:10:25.765Z,13.50
2019-02-02T00:11:25.759Z,14.70
2019-02-02T00:12:25.749Z,16.50
2019-02-02T00:13:25.740Z,12.90
2019-02-02T00:14:25.735Z,12.50
2019-02-02T00:15:25.723Z,11.40
2019-02-02T00:16:25.713Z,14.00
2019-02-02T00:17:25.708Z,11.60
2019-02-02T00:18:25.699Z,14.00
2019-02-02T00:19:25.689Z,13.80
2019-02-02T00:20:25.681Z,12.30
2019-02-02T00:21:25.674Z,15.50
2019-02-02T00:22:25.666Z,15.10
2019-02-02T00:23:25.656Z,15.20
2019-02-02T00:24:25.649Z,14.20
2019-02-02T00:25:25.640Z,10.30
2019-02-02T00:26:25.630Z,16.60
2019-02-02T00:27:25.623Z,11.10
2019-02-02T00:28:25.614Z,15.30
2019-02-02T00:29:25.607Z,15.70
2019-02-02T00:30:25.618Z,17.10
2019-02-02T00:31:25.589Z,21.20
2019-02-02T00:32:25.583Z,10.20
2019-02-02T00:33:25.574Z,12.00
2019-02-02T00:34:25.566Z,13.30
2019-02-02T00:35:25.558Z,12.50
2019-02-02T00:36:25.549Z,14.60
2019-02-02T00:37:25.543Z,15.90
2019-02-02T00:38:25.533Z,13.20
2019-02-02T00:39:25.523Z,15.80
2019-02-02T00:40:25.517Z,16.50
2019-02-02T00:41:25.508Z,16.40
2019-02-02T00:42:25.500Z,13.60
2019-02-02T00:43:25.492Z,11.40
2019-02-02T00:44:25.482Z,15.80
2019-02-02T00:45:25.476Z,11.40
2019-02-02T00:46:25.467Z,13.30
2019-02-02T00:47:25.460Z,15.20
2019-02-02T00:48:25.458Z,13.80
2019-02-02T00:49:25.446Z,13.60
2019-02-02T00:50:25.434Z,17.10
2019-02-02T00:51:25.427Z,13.90
2019-02-02T00:52:25.417Z,15.20
2019-02-02T00:53:25.410Z,18.10
2019-02-02T00:54:25.403Z,14.40
2019-02-02T00:55:25.393Z,15.90
2019-02-02T00:56:25.388Z,15.00
2019-02-02T00:57:25.451Z,14.10
2019-02-02T00:58:25.368Z,13.90
2019-02-02T00:59:25.361Z,11.70
2019-02-02T01:00:25.353Z,13.60
2019-02-02T01:01:25.345Z,13.10
2019-02-02T01:02:25.340Z,11.20
2019-02-02T01:03:25.328Z,15.50
2019-02-02T01:04:25.321Z,17.40
2019-02-02T01:05:25.312Z,12.40
2019-02-02T01:06:25.304Z,11.90
2019-02-02T01:07:25.300Z,14.90
2019-02-02T01:08:25.287Z,11.40
2019-02-02T01:09:25.282Z,16.10
2019-02-02T01:10:25.273Z,16.50
2019-02-02T01:11:25.268Z,14.70
2019-02-02T01:12:25.256Z,13.10
2019-02-02T01:13:25.249Z,13.80
2019-02-02T01:14:25.240Z,14.70
2019-02-02T01:15:25.232Z,20.40
2019-02-02T01:16:25.224Z,9.70
2019-02-02T01:17:25.216Z,14.50
2019-02-02T01:18:25.207Z,10.50
2019-02-02T01:19:25.198Z,19.70
2019-02-02T01:20:25.192Z,17.50
2019-02-02T01:21:25.185Z,14.10
2019-02-02T01:22:25.176Z,15.70
2019-02-02T01:23:25.166Z,16.40
2019-02-02T01:24:25.160Z,12.70
2019-02-02T01:25:25.151Z,14.40
2019-02-02T01:26:25.145Z,16.60
2019-02-02T01:27:25.135Z,11.70
2019-02-02T01:28:25.135Z,14.70
2019-02-02T01:29:25.120Z,16.60
2019-02-02T01:30:25.115Z,19.00
2019-02-02T01:31:25.103Z,10.00
2019-02-02T01:32:25.098Z,9.70
2019-02-02T01:33:25.088Z,15.30
2019-02-02T01:34:25.080Z,15.70
2019-02-02T01:35:25.071Z,17.00
2019-02-02T01:36:25.063Z,14.60
2019-02-02T01:37:25.056Z,9.80
2019-02-02T01:38:25.047Z,17.60
2019-02-02T01:39:25.041Z,14.70
2019-02-02T01:40:25.032Z,17.30
2019-02-02T01:41:25.024Z,20.30
2019-02-02T01:42:25.015Z,13.50
2019-02-02T01:43:25.007Z,20.10
2019-02-02T01:44:24.998Z,15.40
2019-02-02T01:45:24.992Z,13.70
2019-02-02T01:46:24.983Z,13.80
2019-02-02T01:47:24.975Z,17.60
2019-02-02T01:48:24.967Z,17.60
2019-02-02T01:49:24.959Z,14.90
2019-02-02T01:50:24.972Z,13.00
2019-02-02T01:51:24.941Z,15.90
2019-02-02T01:52:24.935Z,19.90
2019-02-02T01:53:24.927Z,14.40
2019-02-02T01:54:24.919Z,16.40
2019-02-02T01:55:24.911Z,13.50
2019-02-02T01:56:24.904Z,16.20
2019-02-02T01:57:24.894Z,15.50
2019-02-02T01:58:24.886Z,17.00
2019-02-02T01:59:24.882Z,16.30
2019-02-02T02:00:24.869Z,13.20
2019-02-02T02:01:24.871Z,17.50
2019-02-02T02:02:24.855Z,13.90
2019-02-02T02:03:24.847Z,12.60
2019-02-02T02:04:24.838Z,11.60
2019-02-02T02:05:24.830Z,15.30
2019-02-02T02:06:24.822Z,16.20
2019-02-02T02:07:24.814Z,19.40
2019-02-02T02:08:24.811Z,12.00
2019-02-02T02:09:24.796Z,13.60
2019-02-02T02:10:24.791Z,14.60
2019-02-02T02:11:24.782Z,16.00
2019-02-02T02:12:24.771Z,14.70
2019-02-02T02:13:24.767Z,21.50
2019-02-02T02:14:24.757Z,16.90
2019-02-02T02:15:24.748Z,18.80
2019-02-02T02:16:24.740Z,17.60
2019-02-02T02:17:24.732Z,14.70
2019-02-02T02:18:24.726Z,16.30
2019-02-02T02:19:24.715Z,16.20
2019-02-02T02:20:24.748Z,21.00
2019-02-02T02:21:24.699Z,17.60
2019-02-02T02:22:24.691Z,17.40
2019-02-02T02:23:24.683Z,16.80
2019-02-02T02:24:24.675Z,16.60
2019-02-02T02:25:24.668Z,13.80
2019-02-02T02:26:24.659Z,22.00
2019-02-02T02:27:24.651Z,13.80
2019-02-02T02:28:28.129Z,18.20
2019-02-02T02:29:24.636Z,15.40
2019-02-02T02:30:24.631Z,21.90
2019-02-02T02:31:24.623Z,23.20
2019-02-02T02:32:24.621Z,18.00
2019-02-02T02:33:24.601Z,19.40
2019-02-02T02:34:24.594Z,15.40
2019-02-02T02:35:24.586Z,17.80
2019-02-02T02:36:24.578Z,16.50
2019-02-02T02:37:24.568Z,13.40
2019-02-02T02:38:24.561Z,17.70
2019-02-02T02:39:24.553Z,15.90
2019-02-02T02:40:24.552Z,15.20
2019-02-02T02:41:24.537Z,18.80
2019-02-02T02:42:24.529Z,16.80
2019-02-02T02:43:24.519Z,16.20
2019-02-02T02:44:24.520Z,15.30
2019-02-02T02:45:24.506Z,16.60
2019-02-02T02:46:24.500Z,15.50
2019-02-02T02:47:24.490Z,12.30
2019-02-02T02:48:24.479Z,18.90
2019-02-02T02:49:24.473Z,15.80
2019-02-02T02:50:24.472Z,22.20
2019-02-02T02:51:24.454Z,15.60
2019-02-02T02:52:24.448Z,17.70
2019-02-02T02:53:24.440Z,14.40
2019-02-02T02:54:24.433Z,14.10
2019-02-02T02:55:24.422Z,16.90
2019-02-02T02:56:24.415Z,17.40
2019-02-02T02:57:24.406Z,14.00
2019-02-02T02:58:24.397Z,14.30
2019-02-02T02:59:24.391Z,13.30
2019-02-02T03:00:24.382Z,15.40
2019-02-02T03:01:24.375Z,15.80
2019-02-02T03:02:24.367Z,14.20
2019-02-02T03:03:24.363Z,11.60
2019-02-02T03:04:24.352Z,17.90
2019-02-02T03:05:24.351Z,13.40
2019-02-02T03:06:24.334Z,16.70
2019-02-02T03:07:24.328Z,12.60
2019-02-02T03:08:24.318Z,12.90
2019-02-02T03:09:24.311Z,14.40
2019-02-02T03:10:24.303Z,12.40
2019-02-02T03:11:24.454Z,10.60
2019-02-02T03:12:24.285Z,9.80
2019-02-02T03:13:24.277Z,10.00
2019-02-02T03:14:24.270Z,14.20
2019-02-02T03:15:24.262Z,10.70
2019-02-02T03:16:24.254Z,12.00
2019-02-02T03:17:24.247Z,16.90
2019-02-02T03:18:24.239Z,11.70
2019-02-02T03:19:24.228Z,12.50
2019-02-02T03:20:24.222Z,12.60
2019-02-02T03:21:24.220Z,9.90
2019-02-02T03:22:24.208Z,10.60
2019-02-02T03:23:24.198Z,9.40
2019-02-02T03:24:24.191Z,10.90
2019-02-02T03:25:24.183Z,8.20
2019-02-02T03:26:24.174Z,7.90
2019-02-02T03:27:24.167Z,9.90
2019-02-02T03:28:24.158Z,12.60
2019-02-02T03:29:24.151Z,11.50
2019-02-02T03:30:24.156Z,9.50
2019-02-02T03:31:24.136Z,11.00
2019-02-02T03:32:24.129Z,14.50
2019-02-02T03:33:24.121Z,10.50
2019-02-02T03:34:24.113Z,10.30
2019-02-02T03:35:24.138Z,12.00
2019-02-02T03:36:24.098Z,13.20
2019-02-02T03:37:24.092Z,12.90
2019-02-02T03:38:24.081Z,10.30
2019-02-02T03:39:24.073Z,11.80
2019-02-02T03:40:24.067Z,8.90
2019-02-02T03:41:24.056Z,12.90
2019-02-02T03:42:24.049Z,11.00
2019-02-02T03:43:24.043Z,16.30
2019-02-02T03:44:24.034Z,10.40
2019-02-02T03:45:24.031Z,11.70
2019-02-02T03:46:24.020Z,9.00
2019-02-02T03:47:24.010Z,8.90
2019-02-02T03:48:24.003Z,9.70
2019-02-02T03:49:23.996Z,13.80
2019-02-02T03:50:23.992Z,10.30
2019-02-02T03:51:23.980Z,15.40
2019-02-02T03:52:23.972Z,11.00
2019-02-02T03:53:23.964Z,14.10
2019-02-02T03:54:23.958Z,12.20
2019-02-02T03:55:23.950Z,14.50
2019-02-02T03:56:23.944Z,13.90
2019-02-02T03:57:23.935Z,13.50
2019-02-02T03:58:23.946Z,11.20
2019-02-02T03:59:23.920Z,15.20
2019-02-02T04:00:23.951Z,12.60
2019-02-02T04:01:23.904Z,11.20
2019-02-02T04:02:23.899Z,10.00
2019-02-02T04:03:23.887Z,9.30
2019-02-02T04:04:23.880Z,8.40
2019-02-02T04:05:23.872Z,13.40
2019-02-02T04:06:23.866Z,10.70
2019-02-02T04:07:23.856Z,10.60
2019-02-02T04:08:23.849Z,10.00
2019-02-02T04:09:23.843Z,7.90
2019-02-02T04:10:23.836Z,14.70
2019-02-02T04:11:23.826Z,11.30
2019-02-02T04:12:23.820Z,11.50
2019-02-02T04:13:23.811Z,12.50
2019-02-02T04:14:23.805Z,11.20
2019-02-02T04:15:23.797Z,10.40
2019-02-02T04:16:23.789Z,13.20
2019-02-02T04:17:23.782Z,12.90
2019-02-02T04:18:23.774Z,13.90
2019-02-02T04:19:23.767Z,9.00
2019-02-02T04:20:23.762Z,11.60
2019-02-02T04:21:23.754Z,11.90
2019-02-02T04:22:23.742Z,11.10
2019-02-02T04:23:23.734Z,14.10
2019-02-02T04:24:23.728Z,14.20
2019-02-02T04:25:23.720Z,10.90
2019-02-02T04:26:23.713Z,14.30
2019-02-02T04:27:23.703Z,13.60
2019-02-02T04:28:23.697Z,13.80
2019-02-02T04:29:23.689Z,10.80
2019-02-02T04:30:23.683Z,11.00
2019-02-02T04:31:23.674Z,14.70
2019-02-02T04:32:23.666Z,16.40
2019-02-02T04:33:23.660Z,16.40
2019-02-02T04:34:23.656Z,16.70
2019-02-02T04:35:23.644Z,9.10
2019-02-02T04:36:23.639Z,11.40
2019-02-02T04:37:23.631Z,16.40
2019-02-02T04:38:23.622Z,10.80
2019-02-02T04:39:23.614Z,17.50
2019-02-02T04:40:23.605Z,16.10
2019-02-02T04:41:23.599Z,11.30
2019-02-02T04:42:23.592Z,13.20
2019-02-02T04:43:23.584Z,12.60
2019-02-02T04:44:23.576Z,12.10
2019-02-02T04:45:23.686Z,11.50
2019-02-02T04:46:23.562Z,12.60
2019-02-02T04:47:23.554Z,10.90
2019-02-02T04:48:23.545Z,12.70
2019-02-02T04:49:23.539Z,10.00
2019-02-02T04:50:23.532Z,11.70
2019-02-02T04:51:23.524Z,14.40
2019-02-02T04:52:23.517Z,10.70
2019-02-02T04:53:23.510Z,14.00
2019-02-02T04:54:23.600Z,16.50
2019-02-02T04:55:23.500Z,15.50
2019-02-02T04:56:23.486Z,11.40
2019-02-02T04:57:23.479Z,14.20
2019-02-02T04:58:23.473Z,8.60
2019-02-02T04:59:29.320Z,11.70
2019-02-02T05:00:23.457Z,12.20
2019-02-02T05:01:23.451Z,11.30
2019-02-02T05:02:23.444Z,13.40
2019-02-02T05:03:23.436Z,9.40
2019-02-02T05:04:23.429Z,11.90
2019-02-02T05:05:23.421Z,9.90
2019-02-02T05:06:23.414Z,9.10
2019-02-02T05:07:23.406Z,13.00
2019-02-02T05:08:23.399Z,11.60
2019-02-02T05:09:23.391Z,12.20
2019-02-02T05:10:23.385Z,16.30
2019-02-02T05:11:23.378Z,12.10
2019-02-02T05:12:23.372Z,13.60
2019-02-02T05:13:23.387Z,13.00
2019-02-02T05:14:23.355Z,16.00
2019-02-02T05:15:23.348Z,13.70
2019-02-02T05:16:23.340Z,12.60
2019-02-02T05:17:23.333Z,15.40
2019-02-02T05:18:23.326Z,17.40
2019-02-02T05:19:23.320Z,16.30
2019-02-02T05:20:23.311Z,12.20
2019-02-02T05:21:23.307Z,13.60
2019-02-02T05:22:23.299Z,14.30
2019-02-02T05:23:23.291Z,12.50
2019-02-02T05:24:23.284Z,16.40
2019-02-02T05:25:23.278Z,14.30
2019-02-02T05:26:23.272Z,8.90
2019-02-02T05:27:23.263Z,17.00
2019-02-02T05:28:23.253Z,14.90
2019-02-02T05:29:23.247Z,17.70
2019-02-02T05:30:23.242Z,11.70
2019-02-02T05:31:23.233Z,17.10
2019-02-02T05:32:23.226Z,13.30
2019-02-02T05:33:23.223Z,16.00
2019-02-02T05:34:23.213Z,13.30
2019-02-02T05:35:23.204Z,15.10
2019-02-02T05:36:23.199Z,15.40
2019-02-02T05:37:23.191Z,13.10
2019-02-02T05:38:23.183Z,20.50
2019-02-02T05:39:23.176Z,16.60
2019-02-02T05:40:23.175Z,15.30
2019-02-02T05:41:23.163Z,11.60
2019-02-02T05:42:23.157Z,13.30
2019-02-02T05:43:23.148Z,16.70
2019-02-02T05:44:23.141Z,15.60
2019-02-02T05:45:23.134Z,15.50
2019-02-02T05:46:23.128Z,21.80
2019-02-02T05:47:23.119Z,13.40
2019-02-02T05:48:23.115Z,19.30
2019-02-02T05:49:23.107Z,14.50
2019-02-02T05:50:23.100Z,13.40
2019-02-02T05:51:23.090Z,18.30
2019-02-02T05:52:23.085Z,16.90
2019-02-02T05:53:23.077Z,13.40
2019-02-02T05:54:23.070Z,13.80
2019-02-02T05:55:23.063Z,17.80
2019-02-02T05:56:23.055Z,17.00
2019-02-02T05:57:23.047Z,16.70
2019-02-02T05:58:23.041Z,16.40
2019-02-02T05:59:23.033Z,12.50
2019-02-02T06:00:23.026Z,13.90
2019-02-02T06:01:23.026Z,13.50
2019-02-02T06:02:23.013Z,16.90
2019-02-02T06:03:23.004Z,16.60
2019-02-02T06:04:22.996Z,15.50
2019-02-02T06:05:22.992Z,21.00
2019-02-02T06:06:22.984Z,14.90
2019-02-02T06:07:22.976Z,20.40
2019-02-02T06:08:22.969Z,14.60
2019-02-02T06:09:23.021Z,24.90
2019-02-02T06:10:22.955Z,16.70
2019-02-02T06:11:22.947Z,20.30
2019-02-02T06:12:22.945Z,11.50
2019-02-02T06:13:22.933Z,11.70
2019-02-02T06:14:22.925Z,17.90
2019-02-02T06:15:22.917Z,19.80
2019-02-02T06:16:22.912Z,17.70
2019-02-02T06:17:22.902Z,23.50
2019-02-02T06:18:22.897Z,19.70
2019-02-02T06:19:22.888Z,16.70
2019-02-02T06:20:22.882Z,18.90
2019-02-02T06:21:22.878Z,16.40
2019-02-02T06:22:22.868Z,17.30
2019-02-02T06:23:22.859Z,17.70
2019-02-02T06:24:22.853Z,18.20
2019-02-02T06:25:22.847Z,11.60
2019-02-02T06:26:22.837Z,17.50
2019-02-02T06:27:22.831Z,19.20
2019-02-02T06:28:22.824Z,18.30
2019-02-02T06:29:22.817Z,17.80
2019-02-02T06:30:22.810Z,17.40
2019-02-02T06:31:22.802Z,22.10
2019-02-02T06:32:22.794Z,17.60
2019-02-02T06:33:22.787Z,20.10
2019-02-02T06:34:22.781Z,14.90
2019-02-02T06:35:22.772Z,21.80
2019-02-02T06:36:22.764Z,20.30
2019-02-02T06:37:22.757Z,21.50
2019-02-02T06:38:22.750Z,22.40
2019-02-02T06:39:22.746Z,20.10
2019-02-02T06:40:22.736Z,21.00
2019-02-02T06:41:22.729Z,18.30
2019-02-02T06:42:22.722Z,18.60
2019-02-02T06:43:22.714Z,23.70
2019-02-02T06:44:22.707Z,18.30
2019-02-02T06:45:22.702Z,21.20
2019-02-02T06:46:22.691Z,18.20
2019-02-02T06:47:22.686Z,20.10
2019-02-02T06:48:22.676Z,22.50
2019-02-02T06:49:22.672Z,17.40
2019-02-02T06:50:22.663Z,23.70
2019-02-02T06:51:22.656Z,23.50
2019-02-02T06:52:22.647Z,23.60
2019-02-02T06:53:22.640Z,23.40
2019-02-02T06:54:22.632Z,24.60
2019-02-02T06:55:22.626Z,28.80
2019-02-02T06:56:22.617Z,19.40
2019-02-02T06:57:22.610Z,27.00
2019-02-02T06:58:22.601Z,22.60
2019-02-02T06:59:22.596Z,21.20
2019-02-02T07:00:22.593Z,21.90
2019-02-02T07:01:22.579Z,20.00
2019-02-02T07:02:22.571Z,20.20
2019-02-02T07:03:22.568Z,26.20
2019-02-02T07:04:22.555Z,21.60
2019-02-02T07:05:22.548Z,23.80
2019-02-02T07:06:22.541Z,18.10
2019-02-02T07:07:22.535Z,20.80
2019-02-02T07:08:22.526Z,24.30
2019-02-02T07:09:22.518Z,30.70
2019-02-02T07:10:22.511Z,19.80
2019-02-02T07:11:22.502Z,18.20
2019-02-02T07:12:22.495Z,20.80
2019-02-02T07:13:22.487Z,22.30
2019-02-02T07:14:22.480Z,29.20
2019-02-02T07:15:22.471Z,23.50
2019-02-02T07:16:22.583Z,26.60
2019-02-02T07:17:22.454Z,23.10
2019-02-02T07:18:22.448Z,21.00
2019-02-02T07:19:22.439Z,22.40
2019-02-02T07:20:22.435Z,27.50
2019-02-02T07:21:22.425Z,25.00
2019-02-02T07:22:22.416Z,26.50
2019-02-02T07:23:22.409Z,24.90
2019-02-02T07:24:22.400Z,19.60
2019-02-02T07:25:22.394Z,25.70
2019-02-02T07:26:22.394Z,25.70
2019-02-02T07:27:22.378Z,19.70
2019-02-02T07:28:22.372Z,24.00
2019-02-02T07:29:22.363Z,21.90
2019-02-02T07:30:28.801Z,25.90
2019-02-02T07:31:22.349Z,30.80
2019-02-02T07:32:22.338Z,21.00
2019-02-02T07:33:22.331Z,27.60
2019-02-02T07:34:22.324Z,27.80
2019-02-02T07:35:22.316Z,25.30
2019-02-02T07:36:22.307Z,25.10
2019-02-02T07:37:22.302Z,32.40
2019-02-02T07:38:22.293Z,25.90
2019-02-02T07:39:22.283Z,22.70
2019-02-02T07:40:22.277Z,25.20
2019-02-02T07:41:22.269Z,25.50
2019-02-02T07:42:22.263Z,27.40
2019-02-02T07:43:22.254Z,31.70
2019-02-02T07:44:22.246Z,28.20
2019-02-02T07:45:22.239Z,26.00
2019-02-02T07:46:22.231Z,30.50
2019-02-02T07:47:22.221Z,32.30
2019-02-02T07:48:22.215Z,29.50
2019-02-02T07:49:22.207Z,28.00
2019-02-02T07:50:22.199Z,26.20
2019-02-02T07:51:22.190Z,30.00
2019-02-02T07:52:22.183Z,27.90
2019-02-02T07:53:22.176Z,25.20
2019-02-02T07:54:22.171Z,27.60
2019-02-02T07:55:22.160Z,26.10
2019-02-02T07:56:22.152Z,29.30
2019-02-02T07:57:22.147Z,26.50
2019-02-02T07:58:22.138Z,34.40
2019-02-02T07:59:22.131Z,24.10
2019-02-02T08:00:22.123Z,29.40
2019-02-02T08:01:22.114Z,26.50
2019-02-02T08:02:22.107Z,28.70
2019-02-02T08:03:22.107Z,27.50
2019-02-02T08:04:22.091Z,24.90
2019-02-02T08:05:22.082Z,33.70
2019-02-02T08:06:22.078Z,26.90
2019-02-02T08:07:22.071Z,29.80
2019-02-02T08:08:22.059Z,22.30
2019-02-02T08:09:22.090Z,27.80
2019-02-02T08:10:22.046Z,22.00
2019-02-02T08:11:22.038Z,29.00
2019-02-02T08:12:22.030Z,28.10
2019-02-02T08:13:22.022Z,25.80
2019-02-02T08:14:22.015Z,25.60
2019-02-02T08:15:22.070Z,27.50
2019-02-02T08:16:22.001Z,32.70
2019-02-02T08:17:21.991Z,29.30
2019-02-02T08:18:21.984Z,33.10
2019-02-02T08:19:21.976Z,26.00
2019-02-02T08:20:21.968Z,33.50
2019-02-02T08:21:21.962Z,29.60
2019-02-02T08:22:21.954Z,36.70
2019-02-02T08:23:21.945Z,32.30
2019-02-02T08:24:21.938Z,32.60
2019-02-02T08:25:21.931Z,33.50
2019-02-02T08:26:22.073Z,29.60
2019-02-02T08:27:21.914Z,33.10
2019-02-02T08:28:21.968Z,35.00
2019-02-02T08:29:21.898Z,30.30
2019-02-02T08:30:21.892Z,29.30
2019-02-02T08:31:21.884Z,26.40
2019-02-02T08:32:21.876Z,29.20
2019-02-02T08:33:21.869Z,32.50
2019-02-02T08:34:21.865Z,25.60
2019-02-02T08:35:21.908Z,28.90
2019-02-02T08:36:21.848Z,33.00
2019-02-02T08:37:21.838Z,29.80
2019-02-02T08:38:21.835Z,28.00
2019-02-02T08:39:29.031Z,33.80
2019-02-02T08:40:21.818Z,28.00
2019-02-02T08:41:21.809Z,30.10
2019-02-02T08:42:21.800Z,29.60
2019-02-02T08:43:21.793Z,31.20
2019-02-02T08:44:21.784Z,27.10
2019-02-02T08:45:21.777Z,35.40
2019-02-02T08:46:21.770Z,38.70
2019-02-02T08:47:21.761Z,25.80
2019-02-02T08:48:21.754Z,23.60
2019-02-02T08:49:21.750Z,31.00
2019-02-02T08:50:21.737Z,26.70
2019-02-02T08:51:21.730Z,34.00
2019-02-02T08:52:21.722Z,27.20
2019-02-02T08:53:21.722Z,32.70
2019-02-02T08:54:21.709Z,33.40
2019-02-02T08:55:21.756Z,29.00
2019-02-02T08:56:21.736Z,28.90
2019-02-02T08:57:21.686Z,26.50
2019-02-02T08:58:21.677Z,39.50
2019-02-02T08:59:21.669Z,33.30
2019-02-02T09:00:21.662Z,24.90
2019-02-02T09:01:21.654Z,35.20
2019-02-02T09:02:21.646Z,34.00
2019-02-02T09:03:21.670Z,28.30
2019-02-02T09:04:21.670Z,36.30
2019-02-02T09:05:21.634Z,38.70
2019-02-02T09:06:21.618Z,26.30
2019-02-02T09:07:21.857Z,35.70
2019-02-02T09:08:21.662Z,33.10
2019-02-02T09:09:21.592Z,34.40
2019-02-02T09:10:21.585Z,32.20
2019-02-02T09:11:21.577Z,28.10
2019-02-02T09:12:21.570Z,35.70
2019-02-02T09:13:21.562Z,27.40
2019-02-02T09:14:21.554Z,33.40
2019-02-02T09:15:21.549Z,35.50
2019-02-02T09:16:21.540Z,35.30
2019-02-02T09:17:21.531Z,29.00
2019-02-02T09:18:21.523Z,38.80
2019-02-02T09:19:21.607Z,32.10
2019-02-02T09:20:21.508Z,30.80
2019-02-02T09:21:21.582Z,30.80
2019-02-02T09:22:21.492Z,34.30
2019-02-02T09:23:21.486Z,31.50
2019-02-02T09:24:21.476Z,32.70
2019-02-02T09:25:21.472Z,32.20
2019-02-02T09:26:21.464Z,32.90
2019-02-02T09:27:21.453Z,28.10
2019-02-02T09:28:21.453Z,29.40
2019-02-02T09:29:21.441Z,33.80
2019-02-02T09:30:21.433Z,29.50
2019-02-02T09:31:21.423Z,33.70
2019-02-02T09:32:21.415Z,36.70
2019-02-02T09:33:21.410Z,33.70
2019-02-02T09:34:21.404Z,37.40
2019-02-02T09:35:21.394Z,25.60
2019-02-02T09:36:21.386Z,34.90
2019-02-02T09:37:21.393Z,34.10
2019-02-02T09:38:21.372Z,28.40
2019-02-02T09:39:21.362Z,34.90
2019-02-02T09:40:21.355Z,35.10
2019-02-02T09:41:21.346Z,36.60
2019-02-02T09:42:21.339Z,31.40
2019-02-02T09:43:21.333Z,26.60
2019-02-02T09:44:21.323Z,30.90
2019-02-02T09:45:21.318Z,35.50
2019-02-02T09:46:21.310Z,32.00
2019-02-02T09:47:21.304Z,25.80
2019-02-02T09:48:21.595Z,37.50
2019-02-02T09:49:21.290Z,31.30
2019-02-02T09:50:21.278Z,31.70
2019-02-02T09:51:21.271Z,36.00
2019-02-02T09:52:21.263Z,33.20
2019-02-02T09:53:21.256Z,35.20
2019-02-02T09:54:26.704Z,30.60
2019-02-02T09:55:21.361Z,36.90
2019-02-02T09:56:21.232Z,33.10
2019-02-02T09:57:21.229Z,31.70
2019-02-02T09:58:21.219Z,36.30
2019-02-02T09:59:21.210Z,34.80
2019-02-02T10:00:21.204Z,32.10
2019-02-02T10:01:27.912Z,35.00
2019-02-02T10:02:21.189Z,37.10
2019-02-02T10:03:21.181Z,29.30
2019-02-02T10:04:21.174Z,34.10
2019-02-02T10:05:21.167Z,36.20
2019-02-02T10:06:21.159Z,35.30
2019-02-02T10:07:21.150Z,39.90
2019-02-02T10:08:21.143Z,37.70
2019-02-02T10:09:21.137Z,39.40
2019-02-02T10:10:21.129Z,29.00
2019-02-02T10:11:21.121Z,29.60
2019-02-02T10:12:21.268Z,37.50
2019-02-02T10:13:21.108Z,35.90
2019-02-02T10:14:21.100Z,43.90
2019-02-02T10:15:21.093Z,42.00
2019-02-02T10:16:21.085Z,43.40
2019-02-02T10:17:21.078Z,37.40
2019-02-02T10:18:21.072Z,29.60
2019-02-02T10:19:21.063Z,37.50
2019-02-02T10:20:21.057Z,37.40
2019-02-02T10:21:21.050Z,37.40
2019-02-02T10:22:21.041Z,34.70
2019-02-02T10:23:21.035Z,34.50
2019-02-02T10:24:21.033Z,35.80
2019-02-02T10:25:21.021Z,35.30
2019-02-02T10:26:21.014Z,42.70
2019-02-02T10:27:21.005Z,31.00
2019-02-02T10:28:21.010Z,37.00
2019-02-02T10:29:20.991Z,34.70
2019-02-02T10:30:22.744Z,36.70
2019-02-02T10:31:20.977Z,40.30
2019-02-02T10:32:20.971Z,34.20
2019-02-02T10:33:20.965Z,36.30
2019-02-02T10:34:20.959Z,39.10
2019-02-02T10:35:20.948Z,33.00
2019-02-02T10:36:20.943Z,34.80
2019-02-02T10:37:20.935Z,37.50
2019-02-02T10:38:20.930Z,41.70
2019-02-02T10:39:20.920Z,38.90
2019-02-02T10:40:20.912Z,36.10
2019-02-02T10:41:20.907Z,35.50
2019-02-02T10:42:20.900Z,39.00
2019-02-02T10:43:20.891Z,43.60
2019-02-02T10:44:20.904Z,36.00
2019-02-02T10:45:20.879Z,35.40
2019-02-02T10:46:20.870Z,41.40
2019-02-02T10:47:20.864Z,43.00
2019-02-02T10:48:20.860Z,37.10
2019-02-02T10:49:20.850Z,41.70
2019-02-02T10:50:20.844Z,46.20
2019-02-02T10:51:20.834Z,42.00
2019-02-02T10:52:20.830Z,35.70
2019-02-02T10:53:20.820Z,41.50
2019-02-02T10:54:20.814Z,37.30
2019-02-02T10:55:20.805Z,45.40
2019-02-02T10:56:20.799Z,38.60
2019-02-02T10:57:20.792Z,54.00
2019-02-02T10:58:20.785Z,42.20
2019-02-02T10:59:20.777Z,39.10
2019-02-02T11:00:20.772Z,42.00
2019-02-02T11:01:20.763Z,39.60
2019-02-02T11:02:20.757Z,51.80
2019-02-02T11:03:20.749Z,49.30
2019-02-02T11:04:20.945Z,44.20
2019-02-02T11:05:20.787Z,46.30
2019-02-02T11:06:20.729Z,42.70
2019-02-02T11:07:20.910Z,45.00
2019-02-02T11:08:20.759Z,52.30
2019-02-02T11:09:20.797Z,40.60
2019-02-02T11:10:20.715Z,45.10
2019-02-02T11:11:20.701Z,48.60
2019-02-02T11:12:20.824Z,45.40
2019-02-02T11:13:20.729Z,37.80
2019-02-02T11:14:20.789Z,42.80
2019-02-02T11:15:20.747Z,49.20
2019-02-02T11:16:20.655Z,47.10
2019-02-02T11:17:20.709Z,42.10
2019-02-02T11:18:20.733Z,49.50
2019-02-02T11:19:20.634Z,47.30
2019-02-02T11:20:20.671Z,40.60
2019-02-02T11:21:20.626Z,43.90
2019-02-02T11:22:20.654Z,44.10
2019-02-02T11:23:20.645Z,44.80
2019-02-02T11:24:20.605Z,46.20
2019-02-02T11:25:20.709Z,38.20
2019-02-02T11:26:20.582Z,39.50
2019-02-02T11:27:20.624Z,44.10
2019-02-02T11:28:20.615Z,42.80
2019-02-02T11:29:20.560Z,46.80
2019-02-02T11:30:20.555Z,38.00
2019-02-02T11:31:20.544Z,46.60
2019-02-02T11:32:20.539Z,46.40
2019-02-02T11:33:20.535Z,44.00
2019-02-02T11:34:20.523Z,49.10
2019-02-02T11:35:20.518Z,45.90
2019-02-02T11:36:20.509Z,48.80
2019-02-02T11:37:20.502Z,46.30
2019-02-02T11:38:20.499Z,47.30
2019-02-02T11:39:20.488Z,44.90
2019-02-02T11:40:20.480Z,36.10
2019-02-02T11:41:20.472Z,44.10
2019-02-02T11:42:20.466Z,53.10
2019-02-02T11:43:20.457Z,40.80
2019-02-02T11:44:20.450Z,46.00
2019-02-02T11:45:20.443Z,49.40
2019-02-02T11:46:20.437Z,36.50
2019-02-02T11:47:20.429Z,46.40
2019-02-02T11:48:20.422Z,44.60
2019-02-02T11:49:20.594Z,45.90
2019-02-02T11:50:20.409Z,45.90
2019-02-02T11:51:20.399Z,45.10
2019-02-02T11:52:23.256Z,42.60
2019-02-02T11:53:20.388Z,42.50
2019-02-02T11:54:20.378Z,42.50
2019-02-02T11:55:20.370Z,48.30
2019-02-02T11:56:20.361Z,53.00
2019-02-02T11:57:20.356Z,42.60
2019-02-02T11:58:20.350Z,42.90
2019-02-02T11:59:20.340Z,47.50
2019-02-02T12:00:20.380Z,41.90
2019-02-02T12:01:20.327Z,49.50
2019-02-02T12:02:20.319Z,44.90
2019-02-02T12:03:20.313Z,48.30
2019-02-02T12:04:20.305Z,48.60
2019-02-02T12:05:20.296Z,44.90
2019-02-02T12:06:20.289Z,43.60
2019-02-02T12:07:20.284Z,52.00
2019-02-02T12:08:20.276Z,52.40
2019-02-02T12:09:20.267Z,42.10
2019-02-02T12:10:20.263Z,48.70
2019-02-02T12:11:20.252Z,54.90
2019-02-02T12:12:20.246Z,46.20
2019-02-02T12:13:20.239Z,44.60
2019-02-02T12:14:20.234Z,43.50
2019-02-02T12:15:20.224Z,44.30
2019-02-02T12:16:20.217Z,50.60
2019-02-02T12:17:20.212Z,41.40
2019-02-02T12:18:20.203Z,41.20
2019-02-02T12:19:20.195Z,40.30
2019-02-02T12:20:20.188Z,44.10
2019-02-02T12:21:20.180Z,43.50
2019-02-02T12:22:20.173Z,50.40
2019-02-02T12:23:20.168Z,48.60
2019-02-02T12:24:20.159Z,43.70
2019-02-02T12:25:20.151Z,42.10
2019-02-02T12:26:20.145Z,51.90
2019-02-02T12:27:20.135Z,52.30
2019-02-02T12:28:20.131Z,36.90
2019-02-02T12:29:20.121Z,49.10
2019-02-02T12:30:20.114Z,43.90
2019-02-02T12:31:20.106Z,39.00
2019-02-02T12:32:26.896Z,50.20
2019-02-02T12:33:20.092Z,47.80
2019-02-02T12:34:20.085Z,47.80
2019-02-02T12:35:20.077Z,39.30
2019-02-02T12:36:20.190Z,41.20
2019-02-02T12:37:20.065Z,49.00
2019-02-02T12:38:20.056Z,41.30
2019-02-02T12:39:20.047Z,45.60
2019-02-02T12:40:20.040Z,48.30
2019-02-02T12:41:20.033Z,52.50
2019-02-02T12:42:20.025Z,38.10
2019-02-02T12:43:20.020Z,52.30
2019-02-02T12:44:20.010Z,51.70
2019-02-02T12:45:20.003Z,53.50
2019-02-02T12:46:19.996Z,53.40
2019-02-02T12:47:20.810Z,38.10
2019-02-02T12:48:19.981Z,45.40
2019-02-02T12:49:19.973Z,47.90
2019-02-02T12:50:19.966Z,49.30
2019-02-02T12:51:19.959Z,45.80
2019-02-02T12:52:19.950Z,52.10
2019-02-02T12:53:19.944Z,46.60